createdAt,value
2019-03-19T00:01:46.710Z,96.50
2019-03-19T00:04:15.168Z,96.60
2019-03-19T00:06:43.617Z,96.50
2019-03-19T00:09:12.067Z,96.70
2019-03-19T00:11:41.499Z,96.60
2019-03-19T00:14:09.901Z,96.40
2019-03-19T00:16:38.370Z,96.30
2019-03-19T00:19:06.893Z,96.40
2019-03-19T00:21:35.315Z,96.20
2019-03-19T00:24:03.935Z,96.10
2019-03-19T00:26:32.392Z,96.10
2019-03-19T00:29:01.089Z,96.20
2019-03-19T00:31:29.558Z,96.20
2019-03-19T00:33:58.023Z,96.30
2019-03-19T00:36:26.446Z,96.50
2019-03-19T00:38:54.910Z,96.30
2019-03-19T00:41:23.327Z,96.80
2019-03-19T00:43:51.780Z,96.80
2019-03-19T00:46:20.269Z,96.50
2019-03-19T00:48:48.774Z,96.70
2019-03-19T00:51:17.308Z,96.90
2019-03-19T00:53:45.740Z,96.50
2019-03-19T00:56:14.177Z,96.70
2019-03-19T00:58:42.635Z,97.00
2019-03-19T01:01:11.118Z,97.20
2019-03-19T01:03:39.541Z,97.10
2019-03-19T01:06:07.994Z,97.10
2019-03-19T01:08:36.443Z,97.50
2019-03-19T01:11:04.849Z,97.90
2019-03-19T01:13:33.314Z,97.60
2019-03-19T01:16:01.707Z,97.80
2019-03-19T01:18:30.101Z,97.60
2019-03-19T01:20:58.573Z,97.80
2019-03-19T01:23:27.042Z,97.80
2019-03-19T01:25:56.004Z,97.90
2019-03-19T01:28:24.549Z,97.80
2019-03-19T01:30:52.991Z,97.90
2019-03-19T01:33:21.405Z,97.90
2019-03-19T01:35:50.075Z,97.70
2019-03-19T01:38:18.555Z,97.70
2019-03-19T01:40:48.072Z,97.90
2019-03-19T01:43:16.523Z,98.10
2019-03-19T01:45:44.945Z,98.10
2019-03-19T01:48:14.299Z,98.20
2019-03-19T01:50:42.749Z,98.60
2019-03-19T01:53:11.284Z,98.50
2019-03-19T01:55:39.800Z,98.40
2019-03-19T01:58:08.213Z,98.50
2019-03-19T02:00:36.733Z,98.10
2019-03-19T02:03:05.178Z,98.10
2019-03-19T02:05:33.673Z,97.90
2019-03-19T02:08:02.135Z,97.90
2019-03-19T02:10:30.561Z,98.10
2019-03-19T02:12:59.019Z,98.10
2019-03-19T02:15:27.507Z,98.00
2019-03-19T02:17:55.970Z,98.10
2019-03-19T02:20:24.422Z,98.10
2019-03-19T02:22:52.840Z,98.40
2019-03-19T02:25:21.285Z,98.60
2019-03-19T02:27:49.725Z,98.50
2019-03-19T02:30:24.258Z,98.50
2019-03-19T02:32:52.665Z,98.30
2019-03-19T02:35:21.134Z,98.20
2019-03-19T02:37:49.569Z,98.40
2019-03-19T02:40:18.003Z,98.30
2019-03-19T02:42:46.401Z,98.10
2019-03-19T02:45:15.419Z,98.00
2019-03-19T02:47:44.780Z,98.20
2019-03-19T02:50:17.180Z,98.00
2019-03-19T02:52:45.748Z,97.90
2019-03-19T02:55:14.852Z,98.10
2019-03-19T02:57:43.293Z,98.00
2019-03-19T03:00:14.421Z,97.60
2019-03-19T03:02:42.952Z,97.30
2019-03-19T03:05:14.711Z,97.40
2019-03-19T03:07:44.252Z,97.60
2019-03-19T03:10:13.744Z,97.70
2019-03-19T03:12:42.228Z,97.70
2019-03-19T03:15:12.325Z,97.90
2019-03-19T03:17:40.794Z,97.90
2019-03-19T03:20:15.756Z,97.90
2019-03-19T03:22:45.166Z,98.80
2019-03-19T03:25:15.179Z,99.30
2019-03-19T03:27:43.801Z,99.00
2019-03-19T03:30:36.164Z,98.90
2019-03-19T03:33:04.714Z,99.00
2019-03-19T03:35:33.204Z,99.50
2019-03-19T03:38:01.827Z,99.00
2019-03-19T03:40:30.290Z,99.20
2019-03-19T03:42:58.771Z,99.10
2019-03-19T03:45:27.222Z,99.30
2019-03-19T03:47:55.708Z,99.30
2019-03-19T03:50:24.157Z,99.50
2019-03-19T03:52:52.628Z,99.70
2019-03-19T03:55:21.227Z,99.60
2019-03-19T03:57:49.682Z,99.20
2019-03-19T04:00:21.760Z,99.10
2019-03-19T04:02:50.534Z,98.90
2019-03-19T04:05:19.075Z,99.10
2019-03-19T04:07:47.567Z,99.00
2019-03-19T04:10:19.467Z,99.40
2019-03-19T04:12:47.974Z,99.30
2019-03-19T04:15:17.233Z,99.40
2019-03-19T04:17:45.770Z,99.60
2019-03-19T04:22:52.836Z,99.90
2019-03-19T04:25:21.276Z,99.70
2019-03-19T04:27:49.854Z,99.50
2019-03-19T04:30:19.763Z,99.60
2019-03-19T04:32:48.884Z,99.90
2019-03-19T04:35:17.305Z,99.70
2019-03-19T04:37:45.745Z,99.40
2019-03-19T04:40:14.920Z,99.60
2019-03-19T04:42:43.923Z,99.40
2019-03-19T04:45:13.676Z,99.40
2019-03-19T04:47:42.145Z,99.60
2019-03-19T04:50:15.916Z,99.60
2019-03-19T04:52:44.435Z,99.50
2019-03-19T04:55:16.288Z,99.30
2019-03-19T04:57:44.953Z,99.50
2019-03-19T05:00:17.666Z,99.90
2019-03-19T05:02:46.124Z,99.90
2019-03-19T05:05:14.855Z,99.90
2019-03-19T05:07:43.399Z,99.90
2019-03-19T05:10:15.905Z,99.90
2019-03-19T05:12:44.490Z,99.90
2019-03-19T05:15:17.544Z,99.90
2019-03-19T05:17:47.622Z,99.90
2019-03-19T05:20:19.434Z,99.90
2019-03-19T05:22:48.008Z,99.90
2019-03-19T05:25:16.455Z,99.90
2019-03-19T05:27:44.874Z,99.90
2019-03-19T05:30:34.209Z,99.90
2019-03-19T05:33:02.643Z,99.90
2019-03-19T05:35:31.198Z,99.90
2019-03-19T05:37:59.674Z,99.90
2019-03-19T05:40:28.111Z,99.90
2019-03-19T05:42:56.585Z,99.90
2019-03-19T05:45:25.358Z,99.90
2019-03-19T05:47:53.822Z,99.90
2019-03-19T05:50:23.611Z,99.90
2019-03-19T05:52:52.088Z,99.90
2019-03-19T05:55:20.629Z,99.90
2019-03-19T05:57:50.340Z,99.90
2019-03-19T06:00:21.532Z,99.90
2019-03-19T06:02:50.042Z,99.90
2019-03-19T06:05:20.978Z,99.90
2019-03-19T06:07:48.664Z,99.90
2019-03-19T06:10:17.146Z,99.90
2019-03-19T06:12:45.610Z,99.90
2019-03-19T06:15:14.873Z,99.90
2019-03-19T06:17:43.432Z,99.90
2019-03-19T06:20:16.085Z,99.90
2019-03-19T06:22:44.519Z,99.90
2019-03-19T06:25:13.320Z,99.90
2019-03-19T06:27:41.858Z,99.90
2019-03-19T06:30:17.661Z,99.90
2019-03-19T06:32:46.294Z,99.90
2019-03-19T06:35:15.814Z,99.90
2019-03-19T06:37:44.261Z,99.90
2019-03-19T06:40:15.303Z,99.90
2019-03-19T06:42:43.766Z,99.90
2019-03-19T06:45:14.225Z,97.70
2019-03-19T06:47:42.665Z,96.80
2019-03-19T06:50:15.607Z,95.20
2019-03-19T06:52:44.100Z,95.80
2019-03-19T06:55:17.478Z,94.90
2019-03-19T06:57:45.937Z,95.90
2019-03-19T07:00:17.336Z,94.90
2019-03-19T07:02:45.813Z,94.70
2019-03-19T07:05:15.283Z,93.80
2019-03-19T07:07:43.735Z,96.00
2019-03-19T07:10:14.130Z,96.10
2019-03-19T07:12:42.547Z,91.60
2019-03-19T07:15:13.613Z,90.60
2019-03-19T07:17:41.280Z,90.20
2019-03-19T07:20:12.701Z,86.10
2019-03-19T07:22:41.126Z,75.80
2019-03-19T07:25:10.219Z,70.00
2019-03-19T07:27:38.699Z,71.50
2019-03-19T07:30:26.292Z,70.10
2019-03-19T07:32:54.725Z,67.60
2019-03-19T07:35:23.262Z,67.00
2019-03-19T07:37:51.664Z,66.10
2019-03-19T07:40:20.236Z,66.10
2019-03-19T07:42:48.686Z,66.40
2019-03-19T07:45:24.331Z,63.00
2019-03-19T07:47:52.805Z,61.70
2019-03-19T07:50:22.569Z,57.80
2019-03-19T07:52:51.051Z,56.20
2019-03-19T07:55:19.482Z,57.00
2019-03-19T07:57:47.993Z,55.80
2019-03-19T08:00:16.872Z,55.70
2019-03-19T08:02:45.707Z,53.30
2019-03-19T08:05:14.257Z,54.30
2019-03-19T08:07:42.945Z,51.70
2019-03-19T08:10:13.719Z,53.00
2019-03-19T08:12:42.214Z,54.10
2019-03-19T08:15:16.631Z,53.60
2019-03-19T08:17:45.201Z,53.70
2019-03-19T08:20:14.573Z,51.90
2019-03-19T08:22:43.142Z,50.70
2019-03-19T08:25:16.273Z,52.90
2019-03-19T08:27:44.807Z,53.80
2019-03-19T08:30:15.160Z,54.40
2019-03-19T08:32:43.599Z,53.90
2019-03-19T08:35:12.026Z,52.30
2019-03-19T08:37:40.488Z,51.60
2019-03-19T08:40:19.495Z,50.20
2019-03-19T08:42:47.985Z,49.90
2019-03-19T08:45:17.898Z,48.80
2019-03-19T08:47:46.351Z,50.20
2019-03-19T08:50:16.399Z,48.70
2019-03-19T08:52:45.031Z,46.40
2019-03-19T08:55:13.512Z,46.70
2019-03-19T08:57:41.978Z,47.90
2019-03-19T09:00:20.987Z,48.50
2019-03-19T09:02:49.421Z,48.30
2019-03-19T09:05:17.982Z,47.50
2019-03-19T09:07:46.706Z,45.00
2019-03-19T09:10:18.713Z,47.40
2019-03-19T09:12:48.693Z,46.20
2019-03-19T09:15:19.792Z,46.00
2019-03-19T09:17:48.249Z,46.90
2019-03-19T09:20:17.349Z,47.00
2019-03-19T09:22:45.823Z,47.60
2019-03-19T09:25:14.455Z,46.60
2019-03-19T09:27:42.874Z,48.30
2019-03-19T09:30:17.195Z,45.80
2019-03-19T09:32:45.654Z,45.30
2019-03-19T09:35:14.330Z,44.30
2019-03-19T09:37:44.850Z,44.60
2019-03-19T09:40:17.341Z,44.70
2019-03-19T09:42:45.994Z,44.60
2019-03-19T09:45:16.114Z,45.40
2019-03-19T09:47:44.532Z,48.10
2019-03-19T09:50:18.758Z,48.40
2019-03-19T09:52:47.206Z,47.50
2019-03-19T09:55:15.804Z,47.10
2019-03-19T09:57:44.264Z,45.00
2019-03-19T10:00:19.792Z,45.40
2019-03-19T10:02:48.481Z,45.60
2019-03-19T10:05:17.284Z,44.50
2019-03-19T10:07:45.722Z,42.80
2019-03-19T10:10:23.988Z,42.40
2019-03-19T10:12:52.464Z,41.20
2019-03-19T10:15:21.051Z,41.80
2019-03-19T10:17:49.495Z,43.10
2019-03-19T10:20:22.155Z,47.40
2019-03-19T10:22:50.603Z,44.30
2019-03-19T10:25:19.026Z,45.60
2019-03-19T10:27:47.486Z,45.10
2019-03-19T10:30:17.612Z,45.10
2019-03-19T10:32:46.116Z,42.60
2019-03-19T10:35:14.748Z,44.60
2019-03-19T10:37:43.283Z,47.10
2019-03-19T10:40:13.555Z,45.20
2019-03-19T10:42:41.969Z,44.10
2019-03-19T10:45:13.736Z,43.10
2019-03-19T10:47:42.198Z,42.90
2019-03-19T10:50:20.339Z,43.00
2019-03-19T10:52:48.864Z,41.60
2019-03-19T10:55:17.872Z,45.20
2019-03-19T10:57:46.479Z,44.00
2019-03-19T11:00:25.219Z,43.10
2019-03-19T11:02:53.806Z,41.40
2019-03-19T11:05:22.880Z,39.30
2019-03-19T11:07:51.473Z,37.50
2019-03-19T11:10:20.100Z,40.30
2019-03-19T11:12:48.647Z,38.30
2019-03-19T11:15:18.530Z,38.20
2019-03-19T11:17:46.939Z,39.80
2019-03-19T11:20:19.503Z,38.90
2019-03-19T11:22:48.012Z,38.10
2019-03-19T11:25:20.533Z,39.10
2019-03-19T11:27:49.012Z,38.00
2019-03-19T11:30:20.597Z,38.50
2019-03-19T11:32:49.133Z,38.10
2019-03-19T11:35:18.000Z,37.90
2019-03-19T11:37:46.466Z,36.70
2019-03-19T11:40:16.595Z,37.30
2019-03-19T11:42:45.005Z,37.60
2019-03-19T11:45:16.220Z,37.50
2019-03-19T11:47:45.175Z,36.90
2019-03-19T11:50:24.009Z,35.10
2019-03-19T11:52:52.612Z,34.90
2019-03-19T11:55:21.350Z,36.40
2019-03-19T11:57:50.358Z,34.60
2019-03-19T12:00:29.362Z,34.70
2019-03-19T12:02:58.068Z,34.40
2019-03-19T12:05:26.547Z,36.70
2019-03-19T12:07:54.980Z,35.40
2019-03-19T12:10:23.483Z,35.80
2019-03-19T12:12:51.928Z,34.60
2019-03-19T12:15:20.350Z,35.70
2019-03-19T12:17:48.970Z,36.80
2019-03-19T12:20:17.450Z,37.60
2019-03-19T12:22:45.888Z,35.40
2019-03-19T12:25:14.519Z,34.80
2019-03-19T12:27:42.940Z,35.10
2019-03-19T12:30:22.121Z,34.50
2019-03-19T12:32:47.663Z,31.60
2019-03-19T12:35:17.249Z,33.50
2019-03-19T12:37:45.772Z,33.10
2019-03-19T12:40:16.546Z,34.00
2019-03-19T12:42:44.986Z,32.20
2019-03-19T12:45:16.257Z,32.30
2019-03-19T12:47:44.756Z,33.90
2019-03-19T12:50:21.196Z,35.30
2019-03-19T12:52:49.630Z,34.80
2019-03-19T12:55:19.161Z,35.20
2019-03-19T12:57:47.644Z,34.60
2019-03-19T13:00:33.442Z,33.80
2019-03-19T13:02:54.238Z,34.30
2019-03-19T13:05:22.964Z,36.50
2019-03-19T13:07:51.498Z,38.70
2019-03-19T13:10:23.709Z,38.90
2019-03-19T13:12:52.191Z,42.10
2019-03-19T13:15:21.006Z,42.70
2019-03-19T13:17:50.444Z,42.40
2019-03-19T13:20:20.126Z,43.80
2019-03-19T13:22:48.564Z,43.30
2019-03-19T13:25:24.656Z,44.90
2019-03-19T13:27:53.309Z,43.40
2019-03-19T13:30:24.234Z,45.50
2019-03-19T13:32:52.689Z,45.40
2019-03-19T13:35:21.564Z,46.40
2019-03-19T13:37:50.047Z,47.20
2019-03-19T13:40:19.061Z,48.50
2019-03-19T13:42:47.498Z,48.50
2019-03-19T13:45:17.434Z,49.60
2019-03-19T13:47:45.995Z,50.30
2019-03-19T13:50:15.954Z,50.40
2019-03-19T13:52:44.449Z,50.40
2019-03-19T13:55:17.564Z,50.90
2019-03-19T13:57:46.119Z,51.30
2019-03-19T14:00:19.615Z,48.80
2019-03-19T14:02:48.134Z,49.20
2019-03-19T14:05:17.302Z,49.10
2019-03-19T14:07:45.797Z,50.20
2019-03-19T14:10:19.922Z,50.10
2019-03-19T14:12:48.909Z,48.20
2019-03-19T14:15:19.666Z,50.00
2019-03-19T14:17:48.157Z,48.80
2019-03-19T14:20:17.218Z,51.40
2019-03-19T14:22:46.377Z,52.40
2019-03-19T14:25:15.938Z,51.10
2019-03-19T14:27:44.624Z,52.40
2019-03-19T14:30:37.573Z,53.00
2019-03-19T14:33:06.017Z,52.30
2019-03-19T14:35:37.655Z,53.60
2019-03-19T14:38:04.593Z,53.00
2019-03-19T14:40:33.069Z,53.90
2019-03-19T14:43:01.669Z,54.40
2019-03-19T14:45:30.181Z,54.00
2019-03-19T14:47:58.654Z,54.90
2019-03-19T14:50:27.330Z,56.00
2019-03-19T14:52:56.435Z,57.40
2019-03-19T14:55:24.897Z,55.60
2019-03-19T14:57:53.467Z,56.10
2019-03-19T15:00:22.805Z,55.50
2019-03-19T15:02:51.306Z,56.10
2019-03-19T15:05:19.815Z,55.30
2019-03-19T15:07:48.280Z,56.00
2019-03-19T15:10:17.777Z,56.20
2019-03-19T15:12:46.283Z,56.40
2019-03-19T15:15:17.802Z,56.00
2019-03-19T15:17:46.323Z,57.20
2019-03-19T15:20:19.287Z,57.50
2019-03-19T15:22:47.907Z,57.50
2019-03-19T15:25:16.424Z,58.60
2019-03-19T15:27:44.868Z,59.60
2019-03-19T15:30:18.166Z,58.40
2019-03-19T15:32:46.691Z,58.50
2019-03-19T15:35:15.232Z,59.60
2019-03-19T15:37:43.679Z,59.20
2019-03-19T15:40:15.177Z,59.20
2019-03-19T15:42:43.644Z,59.10
2019-03-19T15:45:23.183Z,59.00
2019-03-19T15:47:51.710Z,59.60
2019-03-19T15:50:20.310Z,60.10
2019-03-19T15:52:48.780Z,60.20
2019-03-19T15:55:17.179Z,60.50
2019-03-19T15:57:45.727Z,60.60
2019-03-19T16:00:20.686Z,61.80
2019-03-19T16:02:49.202Z,60.80
2019-03-19T16:05:17.748Z,61.20
2019-03-19T16:07:46.224Z,61.50
2019-03-19T16:10:15.498Z,61.90
2019-03-19T16:12:43.962Z,61.10
2019-03-19T16:15:19.363Z,61.70
2019-03-19T16:17:47.804Z,61.10
2019-03-19T16:20:19.808Z,60.60
2019-03-19T16:22:48.265Z,61.40
2019-03-19T16:25:16.711Z,61.60
2019-03-19T16:27:45.289Z,61.60
2019-03-19T16:30:18.112Z,62.80
2019-03-19T16:32:46.661Z,63.20
2019-03-19T16:35:15.261Z,62.30
2019-03-19T16:37:43.830Z,63.10
2019-03-19T16:40:15.064Z,62.20
2019-03-19T16:42:43.682Z,62.60
2019-03-19T16:45:12.337Z,62.30
2019-03-19T16:47:40.826Z,62.10
2019-03-19T16:50:20.279Z,62.00
2019-03-19T16:52:48.790Z,62.80
2019-03-19T16:55:18.403Z,62.70
2019-03-19T16:57:46.885Z,62.20
2019-03-19T17:00:22.589Z,63.80
2019-03-19T17:02:51.063Z,65.10
2019-03-19T17:05:19.560Z,66.90
2019-03-19T17:07:48.027Z,67.20
2019-03-19T17:10:19.207Z,67.90
2019-03-19T17:12:46.873Z,69.80
2019-03-19T17:15:17.056Z,69.70
2019-03-19T17:17:45.632Z,69.30
2019-03-19T17:20:15.576Z,68.70
2019-03-19T17:22:44.067Z,68.60
2019-03-19T17:25:15.573Z,69.40
2019-03-19T17:27:44.021Z,70.40
2019-03-19T17:30:17.268Z,70.40
2019-03-19T17:32:45.894Z,70.70
2019-03-19T17:35:14.370Z,70.80
2019-03-19T17:37:42.842Z,71.00
2019-03-19T17:40:16.440Z,71.70
2019-03-19T17:42:45.018Z,72.60
2019-03-19T17:45:16.062Z,73.20
2019-03-19T17:47:44.035Z,73.20
2019-03-19T17:50:24.822Z,74.90
2019-03-19T17:52:54.425Z,76.00
2019-03-19T17:55:22.961Z,76.60
2019-03-19T17:57:51.366Z,75.80
2019-03-19T18:00:24.440Z,75.90
2019-03-19T18:02:52.950Z,76.40
2019-03-19T18:05:21.460Z,76.70
2019-03-19T18:07:49.908Z,77.10
2019-03-19T18:10:18.635Z,77.10
2019-03-19T18:12:47.499Z,77.90
2019-03-19T18:15:17.142Z,78.60
2019-03-19T18:17:45.687Z,78.70
2019-03-19T18:20:17.874Z,78.80
2019-03-19T18:22:46.582Z,79.20
2019-03-19T18:25:16.178Z,79.80
2019-03-19T18:27:44.710Z,80.50
2019-03-19T18:30:24.461Z,81.20
2019-03-19T18:32:52.890Z,81.50
2019-03-19T18:35:21.437Z,81.90
2019-03-19T18:37:49.931Z,82.60
2019-03-19T18:40:21.163Z,83.50
2019-03-19T18:42:49.817Z,84.70
2019-03-19T18:45:22.718Z,85.10
2019-03-19T18:47:51.247Z,85.60
2019-03-19T18:50:22.967Z,85.90
2019-03-19T18:52:51.395Z,86.10
2019-03-19T18:55:19.945Z,85.70
2019-03-19T18:57:48.488Z,85.70
2019-03-19T19:00:23.774Z,85.30
2019-03-19T19:02:52.209Z,85.10
2019-03-19T19:05:22.783Z,85.50
2019-03-19T19:07:51.260Z,85.60
2019-03-19T19:10:21.321Z,85.60
2019-03-19T19:12:50.053Z,86.30
2019-03-19T19:15:19.883Z,86.90
2019-03-19T19:17:48.390Z,87.10
2019-03-19T19:20:17.531Z,87.00
2019-03-19T19:22:46.051Z,88.10
2019-03-19T19:25:26.509Z,87.40
2019-03-19T19:27:55.048Z,88.20
2019-03-19T19:30:33.841Z,88.20
2019-03-19T19:33:02.790Z,88.60
2019-03-19T19:35:31.388Z,89.10
2019-03-19T19:37:59.791Z,90.00
2019-03-19T19:40:28.243Z,90.10
2019-03-19T19:42:56.739Z,90.30
2019-03-19T19:45:25.198Z,90.20
2019-03-19T19:47:53.737Z,90.60
2019-03-19T19:50:25.932Z,90.70
2019-03-19T19:52:54.426Z,91.40
2019-03-19T19:55:22.941Z,91.00
2019-03-19T19:57:51.395Z,91.20
2019-03-19T20:00:23.399Z,91.30
2019-03-19T20:02:51.875Z,91.80
2019-03-19T20:05:20.334Z,91.70
2019-03-19T20:07:48.814Z,91.70
2019-03-19T20:10:27.476Z,91.70
2019-03-19T20:12:56.082Z,91.80
2019-03-19T20:15:24.769Z,92.00
2019-03-19T20:17:53.351Z,92.10
2019-03-19T20:20:23.259Z,92.40
2019-03-19T20:22:53.239Z,92.50
2019-03-19T20:25:22.009Z,92.60
2019-03-19T20:27:50.448Z,92.60
2019-03-19T20:30:20.155Z,92.80
2019-03-19T20:32:48.722Z,92.70
2019-03-19T20:35:19.418Z,92.50
2019-03-19T20:37:47.934Z,92.80
2019-03-19T20:40:17.122Z,93.00
2019-03-19T20:42:45.848Z,92.90
2019-03-19T20:45:15.779Z,93.00
2019-03-19T20:47:44.284Z,93.10
2019-03-19T20:50:31.455Z,93.00
2019-03-19T20:52:59.931Z,93.20
2019-03-19T20:55:28.407Z,93.30
2019-03-19T20:57:56.972Z,93.80
2019-03-19T21:00:25.408Z,93.80
2019-03-19T21:02:53.960Z,93.90
2019-03-19T21:05:22.740Z,93.90
2019-03-19T21:07:51.252Z,93.90
2019-03-19T21:10:22.274Z,94.00
2019-03-19T21:12:50.914Z,94.10
2019-03-19T21:15:26.484Z,94.30
2019-03-19T21:17:54.921Z,94.20
2019-03-19T21:20:23.429Z,94.30
2019-03-19T21:22:51.919Z,94.10
2019-03-19T21:25:20.556Z,94.30
2019-03-19T21:27:49.105Z,94.30
2019-03-19T21:30:18.768Z,94.30
2019-03-19T21:32:47.389Z,94.30
2019-03-19T21:35:20.594Z,94.40
2019-03-19T21:37:49.289Z,94.80
2019-03-19T21:40:17.878Z,95.00
2019-03-19T21:42:46.388Z,94.80
2019-03-19T21:45:18.061Z,94.70
2019-03-19T21:47:46.612Z,94.80
2019-03-19T21:50:23.119Z,94.90
2019-03-19T21:52:52.408Z,95.20
2019-03-19T21:55:20.844Z,95.20
2019-03-19T21:57:49.320Z,95.20
2019-03-19T22:00:22.067Z,95.00
2019-03-19T22:02:50.615Z,95.00
2019-03-19T22:05:19.069Z,95.50
2019-03-19T22:07:47.605Z,95.40
2019-03-19T22:10:17.179Z,95.90
2019-03-19T22:12:45.685Z,95.60
2019-03-19T22:15:22.137Z,96.00
2019-03-19T22:17:50.598Z,95.90
2019-03-19T22:20:19.150Z,95.80
2019-03-19T22:22:47.630Z,95.80
2019-03-19T22:25:16.374Z,95.80
2019-03-19T22:27:44.986Z,96.00
2019-03-19T22:30:17.735Z,96.10
2019-03-19T22:32:46.334Z,96.10
2019-03-19T22:35:14.971Z,96.50
2019-03-19T22:37:43.492Z,96.20
2019-03-19T22:40:16.454Z,96.10
2019-03-19T22:42:45.042Z,96.20
2019-03-19T22:45:15.414Z,96.30
2019-03-19T22:47:43.977Z,96.30
2019-03-19T22:50:15.039Z,96.30
2019-03-19T22:52:43.578Z,96.20
2019-03-19T22:55:15.134Z,96.30
2019-03-19T22:57:43.556Z,96.20
2019-03-19T23:00:25.623Z,96.40
2019-03-19T23:02:54.127Z,96.30
2019-03-19T23:05:23.539Z,96.40
2019-03-19T23:07:52.010Z,96.60
2019-03-19T23:10:20.463Z,96.80
2019-03-19T23:12:49.003Z,96.50
2019-03-19T23:15:17.496Z,96.40
2019-03-19T23:17:46.021Z,96.60
2019-03-19T23:20:15.044Z,97.10
2019-03-19T23:22:43.696Z,97.10
2019-03-19T23:25:12.639Z,97.40
2019-03-19T23:27:41.082Z,97.20
2019-03-19T23:30:15.251Z,97.20
2019-03-19T23:32:43.688Z,97.20
2019-03-19T23:35:12.220Z,97.20
2019-03-19T23:37:40.798Z,97.20
2019-03-19T23:40:20.561Z,97.40
2019-03-19T23:42:49.048Z,97.30
2019-03-19T23:45:17.567Z,97.20
2019-03-19T23:47:46.116Z,97.00
2019-03-19T23:50:18.618Z,97.00
2019-03-19T23:52:47.118Z,97.00
2019-03-19T23:55:15.665Z,96.90
2019-03-19T23:57:44.088Z,97.20
